Time;durP1;ratioP1;P1;durP2;ratioP2;P2;SDS_P1;SDS_P2;PMS_P1;PMS_P2;Temp;Humidity;BMP_temperature;BMP_pressure;BME280_temperature;BME280_humidity;BME280_pressure;Samples;Min_cycle;Max_cycle;Signal;HPM_P1;HPM_P2
2022/04/13 00:00:15;;;;;;;4.22;2.50;;;4.90;95.70;;;;;;5032442;28;20040;-70
2022/04/13 00:02:42;;;;;;;4.32;1.80;;;5.00;95.30;;;;;;5022566;28;20034;-70
2022/04/13 00:05:09;;;;;;;3.55;2.45;;;4.90;95.00;;;;;;5034154;28;20604;-70
2022/04/13 00:07:35;;;;;;;3.63;2.22;;;4.80;95.20;;;;;;5032326;28;20037;-69
2022/04/13 00:10:02;;;;;;;4.22;2.63;;;4.70;95.60;;;;;;5015501;28;20158;-70
2022/04/13 00:12:28;;;;;;;3.05;2.20;;;4.70;96.00;;;;;;5030168;28;20049;-69
2022/04/13 00:14:54;;;;;;;3.00;2.35;;;4.60;95.90;;;;;;5029691;28;20064;-69
2022/04/13 00:17:20;;;;;;;4.25;2.42;;;4.50;96.00;;;;;;5034969;28;20124;-70
2022/04/13 00:19:45;;;;;;;6.60;3.05;;;4.60;95.80;;;;;;5035162;28;20123;-72
2022/04/13 00:22:11;;;;;;;3.60;2.35;;;4.70;95.60;;;;;;5027728;28;20608;-71
2022/04/13 00:24:37;;;;;;;3.80;2.78;;;4.70;95.50;;;;;;5023434;28;20042;-70
2022/04/13 00:27:03;;;;;;;4.57;3.00;;;4.80;95.80;;;;;;5027679;28;20072;-71
2022/04/13 00:29:30;;;;;;;4.07;2.53;;;4.80;95.40;;;;;;5035980;28;20040;-70
2022/04/13 00:31:58;;;;;;;2.97;1.90;;;4.90;95.40;;;;;;5035943;28;20694;-70
2022/04/13 00:34:24;;;;;;;2.70;1.90;;;4.80;95.00;;;;;;5032615;28;20041;-70
2022/04/13 00:36:49;;;;;;;3.33;2.20;;;4.60;95.30;;;;;;5035260;28;20029;-70
2022/04/13 00:39:15;;;;;;;3.10;2.50;;;4.40;95.50;;;;;;5011647;28;20038;-70
2022/04/13 00:41:41;;;;;;;3.53;2.28;;;4.40;96.00;;;;;;5036532;28;20478;-70
2022/04/13 00:44:11;;;;;;;2.22;2.03;;;4.30;96.20;;;;;;5029493;28;20118;-70
2022/04/13 00:46:37;;;;;;;4.43;3.00;;;4.30;96.30;;;;;;5034626;28;20036;-71
2022/04/13 00:49:05;;;;;;;3.45;2.40;;;4.30;96.40;;;;;;5034143;28;20053;-70
2022/04/13 00:51:31;;;;;;;9.05;2.55;;;4.30;96.30;;;;;;5031779;28;20212;-70
2022/04/13 00:53:59;;;;;;;3.63;3.05;;;4.20;96.30;;;;;;5030324;28;20035;-70
2022/04/13 00:56:27;;;;;;;3.58;2.70;;;4.30;96.30;;;;;;5028945;28;20037;-71
2022/04/13 00:58:54;;;;;;;3.50;2.67;;;4.30;96.30;;;;;;5040786;28;20029;-70
2022/04/13 01:01:22;;;;;;;1.98;1.77;;;4.40;96.10;;;;;;5033228;28;20036;-70
2022/04/13 01:03:54;;;;;;;3.38;2.58;;;4.30;95.90;;;;;;5036610;28;20037;-71
2022/04/13 01:06:20;;;;;;;4.50;2.70;;;4.20;95.90;;;;;;5033475;28;20098;-71
2022/04/13 01:08:49;;;;;;;4.10;2.40;;;4.30;96.30;;;;;;5038259;28;20776;-70
2022/04/13 01:11:16;;;;;;;3.92;3.30;;;4.30;96.10;;;;;;5036050;28;20064;-71
2022/04/13 01:13:42;;;;;;;4.32;2.70;;;4.40;96.00;;;;;;5043218;28;20079;-71
2022/04/13 01:16:08;;;;;;;4.80;3.13;;;4.30;96.10;;;;;;5052278;28;20140;-71
2022/04/13 01:18:34;;;;;;;4.20;3.10;;;4.40;96.30;;;;;;5059097;28;20028;-71
2022/04/13 01:21:00;;;;;;;4.35;2.45;;;4.40;95.90;;;;;;5053434;28;20032;-71
2022/04/13 01:23:27;;;;;;;2.45;1.88;;;4.30;96.30;;;;;;5051965;28;20167;-70
2022/04/13 01:25:54;;;;;;;8.52;2.72;;;4.30;95.90;;;;;;5059291;28;20141;-71
2022/04/13 01:28:21;;;;;;;3.45;2.17;;;4.20;96.30;;;;;;5059435;28;20131;-71
2022/04/13 01:30:48;;;;;;;3.83;1.92;;;4.20;96.20;;;;;;5050925;28;20052;-70
2022/04/13 01:33:14;;;;;;;2.67;2.10;;;4.10;96.10;;;;;;5055397;28;20132;-71
2022/04/13 01:35:40;;;;;;;3.47;2.30;;;4.00;96.10;;;;;;5058816;28;20097;-71
2022/04/13 01:38:06;;;;;;;6.13;1.98;;;4.00;96.40;;;;;;5057702;28;20048;-71
2022/04/13 01:40:32;;;;;;;3.42;2.30;;;3.90;96.40;;;;;;5055020;28;20052;-71
2022/04/13 01:42:58;;;;;;;4.15;2.35;;;3.80;96.60;;;;;;5051506;28;20368;-71
2022/04/13 01:45:23;;;;;;;4.07;2.65;;;3.70;96.60;;;;;;5053409;28;20029;-71
2022/04/13 01:47:50;;;;;;;4.60;3.00;;;3.70;96.90;;;;;;5056716;28;20618;-71
2022/04/13 01:50:17;;;;;;;5.95;2.65;;;3.70;97.00;;;;;;5056071;28;20143;-71
2022/04/13 01:52:47;;;;;;;3.35;2.50;;;3.80;96.80;;;;;;5058827;28;20083;-71
2022/04/13 01:55:13;;;;;;;5.28;2.70;;;4.00;96.60;;;;;;5052441;28;20114;-71
2022/04/13 01:57:41;;;;;;;5.43;2.55;;;4.00;96.50;;;;;;5058650;28;20036;-71
2022/04/13 02:00:09;;;;;;;3.05;2.03;;;4.00;96.70;;;;;;5047403;28;20418;-71
2022/04/13 02:02:35;;;;;;;4.60;2.60;;;4.00;96.80;;;;;;5049291;28;20040;-71
2022/04/13 02:05:01;;;;;;;3.53;2.30;;;3.90;96.90;;;;;;5048798;28;20036;-71
2022/04/13 02:07:27;;;;;;;3.50;2.10;;;3.90;96.40;;;;;;5049930;28;20041;-71
2022/04/13 02:09:55;;;;;;;3.45;2.22;;;3.80;96.40;;;;;;5053218;28;20051;-71
2022/04/13 02:12:20;;;;;;;3.70;2.42;;;3.70;97.00;;;;;;5053409;28;20047;-71
2022/04/13 02:14:46;;;;;;;4.30;2.40;;;3.70;96.90;;;;;;5053511;28;20048;-71
2022/04/13 02:17:16;;;;;;;4.80;3.00;;;3.70;96.90;;;;;;5048574;28;20043;-71
2022/04/13 02:19:43;;;;;;;4.03;2.60;;;3.70;96.70;;;;;;5049553;28;20508;-71
2022/04/13 02:22:09;;;;;;;3.92;2.88;;;3.80;96.80;;;;;;5054851;28;20040;-71
2022/04/13 02:24:34;;;;;;;3.38;2.67;;;3.80;96.50;;;;;;5047644;28;20478;-71
2022/04/13 02:27:01;;;;;;;3.30;2.35;;;3.70;96.50;;;;;;5048385;28;20036;-71
2022/04/13 02:29:27;;;;;;;5.30;2.22;;;3.80;96.60;;;;;;5046811;28;20730;-71
2022/04/13 02:31:52;;;;;;;2.60;2.22;;;3.80;96.70;;;;;;5031842;28;21467;-71
2022/04/13 02:34:18;;;;;;;3.05;1.92;;;3.70;96.40;;;;;;5054078;28;20927;-71
2022/04/13 02:36:44;;;;;;;17.20;8.63;;;3.60;96.30;;;;;;5047024;28;20045;-71
2022/04/13 02:39:09;;;;;;;3.03;2.20;;;3.50;96.10;;;;;;5049911;28;20052;-71
2022/04/13 02:41:35;;;;;;;4.15;3.13;;;3.40;96.40;;;;;;5048277;28;20040;-71
2022/04/13 02:44:01;;;;;;;3.42;2.78;;;3.40;96.40;;;;;;5048160;28;20042;-71
2022/04/13 02:46:27;;;;;;;2.72;1.88;;;3.30;96.70;;;;;;5046831;28;20056;-71
2022/04/13 02:48:52;;;;;;;3.47;2.17;;;3.30;96.70;;;;;;5049556;28;20142;-71
2022/04/13 02:51:18;;;;;;;3.75;2.60;;;3.30;96.90;;;;;;5049320;28;20444;-71
2022/04/13 02:53:43;;;;;;;4.88;3.42;;;3.30;96.70;;;;;;5050510;28;20098;-71
2022/04/13 02:56:09;;;;;;;5.50;3.80;;;3.30;96.60;;;;;;5047585;28;20037;-71
2022/04/13 02:58:35;;;;;;;4.22;3.67;;;3.40;96.90;;;;;;5034113;28;20504;-71
2022/04/13 03:01:03;;;;;;;4.00;3.00;;;3.30;96.80;;;;;;5045296;28;20048;-71
2022/04/13 03:03:30;;;;;;;4.75;2.83;;;3.40;96.70;;;;;;5047214;28;20171;-71
2022/04/13 03:05:56;;;;;;;5.45;3.08;;;3.30;96.80;;;;;;5047943;28;20053;-71
2022/04/13 03:08:22;;;;;;;3.97;2.95;;;3.40;96.90;;;;;;5046308;28;20037;-71
2022/04/13 03:10:48;;;;;;;4.93;2.70;;;3.40;96.70;;;;;;5047364;28;20119;-71
2022/04/13 03:13:13;;;;;;;3.70;2.85;;;3.40;96.80;;;;;;5049485;28;20535;-71
2022/04/13 03:15:39;;;;;;;6.25;3.55;;;3.40;97.10;;;;;;5030691;28;20053;-71
2022/04/13 03:18:05;;;;;;;4.03;3.05;;;3.40;97.10;;;;;;5048951;28;20037;-71
2022/04/13 03:20:32;;;;;;;2.88;2.58;;;3.30;96.90;;;;;;5051007;28;20048;-71
2022/04/13 03:22:58;;;;;;;4.28;2.92;;;3.30;96.80;;;;;;5044406;28;20036;-71
2022/04/13 03:25:23;;;;;;;3.50;2.90;;;3.30;96.90;;;;;;5050052;28;20067;-71
2022/04/13 03:27:49;;;;;;;4.85;2.88;;;3.30;96.90;;;;;;5047163;28;20443;-71
2022/04/13 03:30:16;;;;;;;5.00;3.17;;;3.20;96.90;;;;;;5047296;28;20136;-71
2022/04/13 03:32:42;;;;;;;5.93;3.53;;;3.20;97.10;;;;;;5050533;28;20048;-71
2022/04/13 03:35:10;;;;;;;8.00;4.95;;;3.10;97.40;;;;;;5037001;28;20047;-71
2022/04/13 03:37:37;;;;;;;14.70;6.97;;;3.10;97.50;;;;;;5052387;28;20032;-71
2022/04/13 03:40:03;;;;;;;5.00;3.70;;;3.10;97.60;;;;;;5032895;28;20535;-71
2022/04/13 03:42:36;;;;;;;5.43;3.40;;;3.10;97.60;;;;;;5059546;28;20076;-71
2022/04/13 03:45:07;;;;;;;4.97;2.72;;;3.20;97.50;;;;;;5053266;28;20067;-71
2022/04/13 03:47:33;;;;;;;4.50;2.35;;;3.20;97.40;;;;;;5056506;28;20036;-71
2022/04/13 03:49:58;;;;;;;4.18;2.80;;;3.10;97.30;;;;;;5054428;28;20230;-71
2022/04/13 03:52:25;;;;;;;3.30;2.40;;;3.10;96.80;;;;;;5057443;28;21526;-71
2022/04/13 03:54:51;;;;;;;2.70;2.03;;;3.00;96.70;;;;;;5055489;28;20025;-71
2022/04/13 03:57:16;;;;;;;2.90;2.13;;;2.90;96.70;;;;;;5058346;28;20033;-71
2022/04/13 03:59:42;;;;;;;3.22;2.20;;;2.90;97.10;;;;;;5050263;28;20564;-71
2022/04/13 04:02:07;;;;;;;3.55;2.58;;;2.80;97.10;;;;;;5053443;28;20562;-70
2022/04/13 04:04:33;;;;;;;3.90;2.45;;;2.80;97.10;;;;;;5039788;28;20041;-73
2022/04/13 04:06:59;;;;;;;3.13;2.20;;;2.80;97.20;;;;;;5059651;28;20118;-72
2022/04/13 04:09:24;;;;;;;4.50;2.45;;;2.80;97.30;;;;;;5051782;28;20043;-71
2022/04/13 04:11:50;;;;;;;4.35;2.67;;;2.80;97.30;;;;;;5048975;28;20052;-72
2022/04/13 04:14:16;;;;;;;6.20;3.60;;;2.80;97.30;;;;;;5059118;28;20048;-72
2022/04/13 04:16:41;;;;;;;4.35;3.72;;;2.80;97.50;;;;;;5054170;28;20131;-72
2022/04/13 04:19:08;;;;;;;13.00;3.35;;;2.90;97.50;;;;;;5036677;28;20040;-72
2022/04/13 04:21:34;;;;;;;12.52;3.63;;;2.90;97.60;;;;;;5053966;28;20178;-72
2022/04/13 04:24:00;;;;;;;9.52;3.85;;;3.00;97.50;;;;;;5052779;28;20216;-72
2022/04/13 04:26:26;;;;;;;14.88;3.88;;;3.10;97.40;;;;;;5058063;28;20028;-71
2022/04/13 04:28:51;;;;;;;3.33;2.20;;;3.20;97.60;;;;;;5048235;28;20051;-71
2022/04/13 04:31:49;;;;;;;3.97;2.30;;;3.10;97.40;;;;;;5047624;28;20558;-71
2022/04/13 04:34:02;;;;;;;2.75;2.10;;;3.00;97.10;;;;;;5057126;28;20047;-73
2022/04/13 04:36:28;;;;;;;3.97;2.25;;;3.00;97.60;;;;;;5057456;28;20032;-73
2022/04/13 04:38:54;;;;;;;3.17;2.67;;;3.00;97.20;;;;;;5056923;28;20052;-73
2022/04/13 04:41:19;;;;;;;5.57;2.25;;;3.00;97.40;;;;;;5052135;28;20131;-72
2022/04/13 04:43:45;;;;;;;4.00;2.47;;;3.00;97.20;;;;;;5055571;28;20068;-74
2022/04/13 04:46:12;;;;;;;3.08;2.78;;;3.00;97.10;;;;;;5056447;28;20075;-70
2022/04/13 04:48:40;;;;;;;6.30;2.95;;;2.90;97.40;;;;;;5040611;28;20045;-71
2022/04/13 04:51:06;;;;;;;4.85;3.03;;;3.00;97.70;;;;;;5057254;28;20484;-72
2022/04/13 04:53:31;;;;;;;3.92;2.55;;;3.00;98.20;;;;;;5052845;28;20037;-73
2022/04/13 04:55:57;;;;;;;4.45;2.67;;;3.20;98.00;;;;;;5055377;28;20516;-71
2022/04/13 04:58:23;;;;;;;4.00;2.67;;;3.30;97.70;;;;;;5052148;28;20138;-75
2022/04/13 05:00:48;;;;;;;5.22;2.72;;;3.30;97.70;;;;;;5051360;28;20105;-74
2022/04/13 05:03:14;;;;;;;6.80;2.90;;;3.40;98.20;;;;;;5050141;28;20044;-73
2022/04/13 05:05:41;;;;;;;5.43;2.70;;;3.50;97.90;;;;;;5051105;28;20132;-74
2022/04/13 05:08:07;;;;;;;6.15;3.13;;;3.60;97.70;;;;;;5035749;28;20806;-74
2022/04/13 05:10:33;;;;;;;8.30;3.05;;;3.60;97.50;;;;;;5053985;28;20282;-74
2022/04/13 05:12:59;;;;;;;6.85;2.90;;;3.70;97.80;;;;;;5052228;28;20119;-74
2022/04/13 05:15:25;;;;;;;5.20;3.42;;;3.80;98.00;;;;;;5051079;28;20060;-73
2022/04/13 05:17:51;;;;;;;6.80;4.00;;;3.90;97.60;;;;;;5055929;28;20033;-73
2022/04/13 05:20:16;;;;;;;8.05;4.35;;;4.00;97.90;;;;;;5031997;28;20044;-74
2022/04/13 05:22:42;;;;;;;5.78;4.18;;;4.10;98.30;;;;;;5049939;28;20122;-73
2022/04/13 05:25:10;;;;;;;13.02;4.20;;;4.20;97.90;;;;;;5056002;28;20081;-73
2022/04/13 05:27:36;;;;;;;9.25;3.92;;;4.40;97.90;;;;;;5052563;28;20454;-72
2022/04/13 05:30:04;;;;;;;28.02;4.03;;;4.60;98.20;;;;;;5054944;28;20047;-70
2022/04/13 05:32:30;;;;;;;5.47;3.55;;;4.80;98.40;;;;;;5051442;28;20573;-70
2022/04/13 05:35:00;;;;;;;7.63;3.60;;;5.00;98.10;;;;;;5054163;28;20350;-70
2022/04/13 05:37:27;;;;;;;8.95;3.63;;;5.30;97.40;;;;;;5051848;28;20075;-70
2022/04/13 05:39:53;;;;;;;6.78;3.08;;;5.50;97.00;;;;;;5051697;28;20612;-70
2022/04/13 05:42:25;;;;;;;4.97;3.22;;;5.60;96.00;;;;;;5055132;28;20036;-70
2022/04/13 05:44:51;;;;;;;;;;;5.80;95.60;;;;;;5058469;28;20043;-70
2022/04/13 05:47:17;;;;;;;4.00;3.00;;;6.00;95.60;;;;;;5062185;28;19959;-71
2022/04/13 05:49:43;;;;;;;7.32;3.03;;;6.20;95.40;;;;;;5058769;28;20040;-71
2022/04/13 05:52:09;;;;;;;5.32;3.38;;;6.50;95.00;;;;;;5050793;28;20064;-70
2022/04/13 05:54:34;;;;;;;3.55;3.00;;;6.70;94.30;;;;;;5049760;28;20048;-71
2022/04/13 05:57:02;;;;;;;3.53;2.47;;;6.70;94.00;;;;;;5055981;28;20043;-69
2022/04/13 05:59:28;;;;;;;4.82;2.75;;;6.80;94.00;;;;;;5046558;28;20087;-71
2022/04/13 06:01:54;;;;;;;5.28;3.47;;;7.00;94.60;;;;;;5042706;28;20050;-68
2022/04/13 06:04:20;;;;;;;4.45;3.08;;;7.10;95.40;;;;;;5047107;28;20843;-68
2022/04/13 06:06:45;;;;;;;4.40;3.30;;;7.30;95.70;;;;;;5059139;28;20127;-67
2022/04/13 06:09:11;;;;;;;4.35;3.03;;;7.50;95.20;;;;;;5054112;28;20033;-67
2022/04/13 06:11:37;;;;;;;5.93;3.35;;;7.70;94.90;;;;;;5046921;28;20068;-67
2022/04/13 06:14:02;;;;;;;5.20;3.40;;;7.90;94.80;;;;;;5051298;28;20076;-67
2022/04/13 06:16:28;;;;;;;4.60;3.63;;;8.00;94.60;;;;;;5059950;28;20060;-67
2022/04/13 06:18:54;;;;;;;4.10;3.22;;;8.30;94.50;;;;;;5040462;28;20676;-66
2022/04/13 06:21:19;;;;;;;6.78;3.25;;;8.40;94.30;;;;;;5051149;28;20473;-66
2022/04/13 06:23:47;;;;;;;6.05;3.72;;;8.60;94.00;;;;;;5053106;28;20029;-67
2022/04/13 06:26:12;;;;;;;4.90;3.60;;;8.70;93.50;;;;;;5057107;28;20064;-67
2022/04/13 06:28:38;;;;;;;6.53;3.55;;;8.90;93.60;;;;;;5059484;28;20059;-67
2022/04/13 06:31:04;;;;;;;5.47;3.17;;;9.10;93.60;;;;;;5045098;28;20055;-67
2022/04/13 06:33:29;;;;;;;5.88;3.42;;;9.20;93.60;;;;;;5058365;28;20048;-67
2022/04/13 06:35:55;;;;;;;4.20;3.30;;;9.40;93.10;;;;;;5061173;28;20036;-67
2022/04/13 06:38:21;;;;;;;5.82;3.38;;;9.60;92.90;;;;;;5036324;28;20043;-68
2022/04/13 06:40:46;;;;;;;4.00;3.10;;;9.80;92.30;;;;;;5059855;28;20382;-70
2022/04/13 06:43:12;;;;;;;5.72;3.08;;;10.00;91.00;;;;;;5048638;28;20559;-70
2022/04/13 06:45:39;;;;;;;7.78;3.20;;;10.20;89.50;;;;;;5037941;28;20068;-70
2022/04/13 06:48:07;;;;;;;5.00;3.10;;;10.40;85.50;;;;;;5059766;28;20045;-69
2022/04/13 06:50:33;;;;;;;5.45;3.10;;;10.50;84.80;;;;;;5054908;28;20952;-70
2022/04/13 06:52:59;;;;;;;6.28;2.65;;;10.70;84.00;;;;;;5055311;28;20132;-70
2022/04/13 06:55:25;;;;;;;4.95;2.97;;;10.60;83.30;;;;;;5058363;28;20151;-67
2022/04/13 06:57:51;;;;;;;4.75;3.08;;;10.70;84.00;;;;;;5053273;28;20044;-67
2022/04/13 07:00:16;;;;;;;6.28;3.25;;;10.90;82.20;;;;;;5052600;28;20048;-67
2022/04/13 07:02:42;;;;;;;3.13;2.70;;;11.00;80.10;;;;;;5052744;28;20505;-67
2022/04/13 07:05:08;;;;;;;4.93;2.92;;;11.20;79.00;;;;;;5047910;28;20037;-67
2022/04/13 07:07:35;;;;;;;5.40;3.20;;;11.40;77.40;;;;;;5054314;28;20525;-67
2022/04/13 07:10:03;;;;;;;6.28;3.03;;;11.50;75.70;;;;;;5055280;28;20033;-67
2022/04/13 07:12:36;;;;;;;9.23;3.33;;;11.40;76.70;;;;;;5049303;28;20437;-67
2022/04/13 07:15:02;;;;;;;5.22;3.10;;;11.50;77.50;;;;;;5051689;28;20052;-67
2022/04/13 07:17:28;;;;;;;5.70;3.22;;;11.60;75.40;;;;;;5043096;28;20873;-67
2022/04/13 07:19:53;;;;;;;5.60;3.40;;;11.80;73.70;;;;;;5049071;28;20517;-67
2022/04/13 07:22:19;;;;;;;7.05;3.53;;;11.90;74.30;;;;;;5024834;28;20040;-67
2022/04/13 07:24:45;;;;;;;8.73;3.28;;;12.20;72.80;;;;;;5054555;28;20029;-67
2022/04/13 07:27:10;;;;;;;6.10;3.40;;;12.20;71.50;;;;;;5051889;28;20116;-67
2022/04/13 07:29:36;;;;;;;4.65;3.08;;;12.20;66.40;;;;;;5037080;28;20462;-67
2022/04/13 07:32:01;;;;;;;7.38;2.95;;;12.30;64.80;;;;;;5046777;28;20056;-67
2022/04/13 07:34:27;;;;;;;4.70;3.22;;;12.30;67.20;;;;;;5043584;28;20091;-67
2022/04/13 07:36:53;;;;;;;7.65;3.33;;;12.40;64.20;;;;;;5035918;28;20055;-67
2022/04/13 07:39:19;;;;;;;12.90;3.20;;;12.50;63.00;;;;;;5044717;28;20501;-67
2022/04/13 07:41:44;;;;;;;7.00;3.78;;;12.60;65.20;;;;;;5048662;28;20166;-67
2022/04/13 07:44:11;;;;;;;5.15;3.10;;;12.90;63.80;;;;;;5042910;28;20130;-67
2022/04/13 07:46:37;;;;;;;4.05;3.30;;;13.00;62.00;;;;;;5042636;28;20085;-67
2022/04/13 07:49:05;;;;;;;4.15;3.17;;;13.00;63.70;;;;;;5053672;28;20475;-67
2022/04/13 07:51:31;;;;;;;4.53;3.47;;;13.10;59.80;;;;;;5045470;28;20059;-67
2022/04/13 07:53:57;;;;;;;3.88;3.10;;;13.10;60.80;;;;;;5049393;28;20040;-67
2022/04/13 07:56:23;;;;;;;4.43;3.20;;;13.30;61.30;;;;;;5048233;28;20106;-67
2022/04/13 07:58:48;;;;;;;4.43;3.28;;;13.30;61.00;;;;;;5026359;28;20102;-67
2022/04/13 08:01:14;;;;;;;6.07;3.03;;;13.30;60.70;;;;;;5043826;28;20041;-67
2022/04/13 08:03:40;;;;;;;3.72;3.20;;;13.50;60.30;;;;;;5041237;28;20045;-67
2022/04/13 08:06:07;;;;;;;8.45;3.10;;;13.60;62.80;;;;;;5050823;28;20044;-67
2022/04/13 08:08:32;;;;;;;7.03;2.90;;;13.70;61.10;;;;;;5048450;28;20143;-67
2022/04/13 08:10:58;;;;;;;4.30;2.72;;;13.70;60.70;;;;;;5054117;28;20096;-67
2022/04/13 08:13:24;;;;;;;5.35;3.38;;;13.70;57.00;;;;;;5060091;28;20241;-67
2022/04/13 08:15:49;;;;;;;5.82;2.70;;;13.60;57.60;;;;;;5040043;28;20385;-67
2022/04/13 08:18:15;;;;;;;6.47;3.03;;;13.70;57.30;;;;;;5036656;28;20494;-67
2022/04/13 08:20:41;;;;;;;4.18;3.35;;;13.80;57.20;;;;;;5035594;28;20146;-67
2022/04/13 08:23:06;;;;;;;5.97;3.08;;;13.90;57.70;;;;;;5030722;28;20037;-67
2022/04/13 08:25:32;;;;;;;5.18;2.85;;;14.00;57.20;;;;;;5031860;28;20033;-67
2022/04/13 08:27:58;;;;;;;5.22;3.17;;;14.10;54.90;;;;;;5032381;28;20033;-67
2022/04/13 08:30:25;;;;;;;3.65;2.72;;;14.10;54.70;;;;;;5031021;28;20513;-67
2022/04/13 08:32:50;;;;;;;3.45;2.40;;;14.10;54.70;;;;;;5027228;28;20036;-67
2022/04/13 08:35:16;;;;;;;4.43;3.15;;;14.10;54.70;;;;;;5031728;28;20037;-67
2022/04/13 08:37:43;;;;;;;3.78;2.90;;;14.10;52.80;;;;;;5031883;28;20558;-67
2022/04/13 08:40:13;;;;;;;4.47;2.67;;;14.00;53.80;;;;;;5035191;28;20494;-67
2022/04/13 08:42:47;;;;;;;9.15;5.43;;;13.90;52.60;;;;;;5035292;28;20084;-67
2022/04/13 08:45:35;;;;;;;6.00;4.28;;;13.90;53.40;;;;;;5036236;28;20373;-67
2022/04/13 08:48:04;;;;;;;3.38;2.60;;;14.00;55.20;;;;;;5032560;28;20098;-67
2022/04/13 08:50:31;;;;;;;5.82;2.80;;;14.20;53.90;;;;;;5043808;28;20171;-68
2022/04/13 08:53:05;;;;;;;2.75;1.60;;;14.40;53.10;;;;;;5041845;28;20086;-67
2022/04/13 08:55:31;;;;;;;2.45;1.60;;;14.40;47.20;;;;;;5038725;28;20036;-67
2022/04/13 08:58:36;;;;;;;4.97;1.90;;;14.30;47.70;;;;;;5031274;28;20037;-67
2022/04/13 09:01:08;;;;;;;14.82;8.30;;;14.40;47.30;;;;;;5042675;28;20120;-68
2022/04/13 09:03:41;;;;;;;2.85;2.00;;;14.30;49.20;;;;;;5033270;28;20576;-71
2022/04/13 09:06:08;;;;;;;16.15;8.50;;;14.30;47.00;;;;;;5022989;28;20049;-71
2022/04/13 09:08:39;;;;;;;5.55;2.42;;;14.30;48.50;;;;;;5028956;28;20041;-68
2022/04/13 09:11:05;;;;;;;12.55;8.63;;;14.40;49.40;;;;;;5042120;28;20033;-68
2022/04/13 09:13:34;;;;;;;3.55;2.13;;;14.50;47.40;;;;;;5037346;28;20253;-68
2022/04/13 09:16:02;;;;;;;14.68;8.88;;;14.50;47.50;;;;;;5044652;28;20573;-68
2022/04/13 09:18:28;;;;;;;25.67;14.30;;;14.50;46.70;;;;;;5052015;28;20036;-68
2022/04/13 09:20:54;;;;;;;11.50;7.57;;;14.40;48.70;;;;;;5043325;28;20049;-69
2022/04/13 09:23:23;;;;;;;14.98;10.52;;;14.40;48.50;;;;;;5049959;28;20037;-69
2022/04/13 09:25:51;;;;;;;13.68;7.30;;;14.40;47.70;;;;;;5048203;28;20036;-68
2022/04/13 09:28:17;;;;;;;9.95;3.30;;;14.50;50.30;;;;;;5052463;28;20031;-69
2022/04/13 09:30:43;;;;;;;5.00;2.40;;;14.70;50.30;;;;;;5051870;28;20033;-68
2022/04/13 09:33:09;;;;;;;3.63;2.30;;;14.90;47.70;;;;;;5047386;28;20186;-68
2022/04/13 09:35:35;;;;;;;3.50;2.45;;;14.90;48.30;;;;;;5046803;28;20149;-68
2022/04/13 09:38:06;;;;;;;6.88;2.78;;;15.00;48.70;;;;;;5061222;28;20103;-69
2022/04/13 09:40:35;;;;;;;6.10;2.60;;;15.10;48.90;;;;;;5051686;28;20032;-69
2022/04/13 09:43:11;;;;;;;4.97;2.88;;;15.20;47.30;;;;;;5050629;28;20565;-68
2022/04/13 09:45:43;;;;;;;5.45;4.28;;;15.20;47.30;;;;;;5029415;28;20468;-68
2022/04/13 09:48:11;;;;;;;4.90;3.20;;;15.10;47.70;;;;;;5041720;28;20040;-68
2022/04/13 09:50:37;;;;;;;4.70;2.92;;;15.20;47.80;;;;;;5045390;28;20128;-67
2022/04/13 09:53:05;;;;;;;7.80;4.00;;;15.20;46.70;;;;;;5019217;28;20081;-67
2022/04/13 09:55:34;;;;;;;16.13;4.45;;;15.20;48.10;;;;;;5033341;28;20061;-68
2022/04/13 09:58:14;;;;;;;4.50;2.97;;;15.30;47.00;;;;;;5049410;28;20032;-68
2022/04/13 10:00:41;;;;;;;5.88;3.22;;;15.30;45.90;;;;;;5054293;28;20143;-69
2022/04/13 10:03:18;;;;;;;4.45;3.35;;;15.40;48.20;;;;;;5035501;28;20390;-69
2022/04/13 10:05:50;;;;;;;3.38;2.55;;;15.50;45.90;;;;;;5058295;28;20036;-68
2022/04/13 10:08:22;;;;;;;3.60;3.05;;;15.60;47.00;;;;;;5058945;28;20032;-69
2022/04/13 10:10:49;;;;;;;5.20;3.58;;;15.80;47.90;;;;;;5059739;28;20043;-68
2022/04/13 10:13:35;;;;;;;4.90;3.67;;;15.80;45.50;;;;;;5045520;28;20620;-68
2022/04/13 10:16:04;;;;;;;4.18;3.08;;;15.90;46.90;;;;;;5019624;28;20045;-69
2022/04/13 10:18:32;;;;;;;4.03;3.13;;;15.70;46.00;;;;;;5042138;28;20180;-69
2022/04/13 10:20:58;;;;;;;4.80;3.58;;;15.70;46.00;;;;;;5042140;28;20360;-69
2022/04/13 10:23:24;;;;;;;5.30;3.35;;;15.70;47.00;;;;;;5037370;28;20119;-68
2022/04/13 10:26:08;;;;;;;7.80;3.88;;;15.70;46.60;;;;;;5039772;28;20051;-69
2022/04/13 10:28:45;;;;;;;5.68;3.40;;;15.80;46.50;;;;;;5038161;28;20045;-69
2022/04/13 10:31:10;;;;;;;6.63;3.88;;;15.80;45.80;;;;;;5040664;28;20124;-69
2022/04/13 10:33:46;;;;;;;6.40;3.78;;;15.90;45.80;;;;;;5023621;28;20578;-69
2022/04/13 10:36:12;;;;;;;5.45;3.75;;;15.80;46.00;;;;;;5035682;28;20518;-69
2022/04/13 10:38:38;;;;;;;7.80;4.50;;;15.80;45.40;;;;;;5018520;28;20091;-69
2022/04/13 10:41:04;;;;;;;6.38;4.18;;;15.80;44.90;;;;;;5038060;28;20041;-69
2022/04/13 10:43:31;;;;;;;5.88;4.85;;;15.80;46.70;;;;;;5038905;28;20051;-69
2022/04/13 10:45:58;;;;;;;5.25;4.35;;;15.90;45.30;;;;;;5037255;28;20678;-68
2022/04/13 10:48:31;;;;;;;8.10;4.70;;;16.00;48.20;;;;;;5041733;28;20049;-69
2022/04/13 10:51:06;;;;;;;6.50;5.07;;;16.10;47.50;;;;;;5040152;28;20025;-69
2022/04/13 10:53:44;;;;;;;7.05;4.65;;;16.30;46.90;;;;;;5037001;28;20047;-69
2022/04/13 10:56:11;;;;;;;7.85;4.57;;;16.40;45.90;;;;;;5036565;28;20128;-68
2022/04/13 10:58:58;;;;;;;6.63;4.82;;;16.40;47.50;;;;;;5038969;28;20048;-69
2022/04/13 11:01:29;;;;;;;8.23;5.28;;;16.40;45.50;;;;;;5038438;28;20386;-68
2022/04/13 11:03:56;;;;;;;9.98;5.47;;;16.40;47.30;;;;;;5039940;28;20033;-69
2022/04/13 11:06:23;;;;;;;10.07;5.40;;;16.70;47.90;;;;;;5039231;28;20125;-69
2022/04/13 11:09:03;;;;;;;7.47;4.32;;;16.80;45.50;;;;;;5038600;28;20735;-68
2022/04/13 11:11:31;;;;;;;7.55;5.93;;;16.80;43.90;;;;;;5041594;28;20105;-68
2022/04/13 11:13:57;;;;;;;6.28;5.30;;;16.50;44.60;;;;;;5039111;28;21183;-68
2022/04/13 11:16:29;;;;;;;8.05;5.80;;;16.60;46.10;;;;;;5035064;28;20099;-68
2022/04/13 11:19:06;;;;;;;9.10;5.53;;;16.60;46.10;;;;;;5042432;28;20103;-68
2022/04/13 11:21:55;;;;;;;9.07;5.95;;;16.80;46.50;;;;;;5038602;28;20041;-68
2022/04/13 11:24:40;;;;;;;8.23;6.10;;;17.00;45.80;;;;;;5036486;28;20036;-68
2022/04/13 11:27:07;;;;;;;8.52;5.10;;;17.00;45.50;;;;;;5041582;28;20033;-68
2022/04/13 11:29:41;;;;;;;9.70;6.07;;;17.10;45.90;;;;;;5035987;28;20063;-68
2022/04/13 11:32:12;;;;;;;10.55;5.78;;;17.20;45.10;;;;;;5034757;28;20111;-68
2022/04/13 11:34:51;;;;;;;8.50;5.50;;;17.10;45.70;;;;;;5038646;28;20032;-71
2022/04/13 11:37:35;;;;;;;7.43;5.45;;;17.10;45.10;;;;;;5037719;28;20481;-70
2022/04/13 11:40:05;;;;;;;6.78;4.85;;;17.00;44.80;;;;;;5041999;28;20098;-69
2022/04/13 11:42:40;;;;;;;9.48;5.63;;;17.10;46.60;;;;;;5036372;28;20036;-69
2022/04/13 11:45:05;;;;;;;6.90;5.00;;;17.00;45.30;;;;;;5035714;28;20380;-69
2022/04/13 11:47:53;;;;;;;8.00;5.55;;;17.10;46.00;;;;;;5038352;28;20190;-68
2022/04/13 11:50:27;;;;;;;8.88;6.07;;;17.20;44.90;;;;;;5035868;28;20043;-67
2022/04/13 11:52:54;;;;;;;7.72;5.28;;;17.10;44.10;;;;;;5040626;28;20072;-66
2022/04/13 11:55:25;;;;;;;10.50;5.40;;;17.00;45.60;;;;;;5034333;28;20037;-67
2022/04/13 11:58:08;;;;;;;7.22;5.50;;;17.20;46.10;;;;;;5030101;28;20113;-67
2022/04/13 12:00:54;;;;;;;10.32;5.13;;;17.30;46.00;;;;;;5035941;28;20198;-68
2022/04/13 12:03:27;;;;;;;7.38;5.25;;;17.40;44.40;;;;;;5039601;28;20122;-68
2022/04/13 12:05:54;;;;;;;9.30;5.38;;;17.30;44.80;;;;;;5041597;28;20142;-68
2022/04/13 12:08:21;;;;;;;8.40;5.43;;;17.30;44.40;;;;;;5037145;28;20044;-68
2022/04/13 12:10:57;;;;;;;7.75;5.50;;;17.30;44.30;;;;;;5039141;28;20037;-67
2022/04/13 12:13:24;;;;;;;7.10;5.25;;;17.30;44.80;;;;;;5036346;28;20057;-67
2022/04/13 12:15:51;;;;;;;6.88;5.35;;;17.40;44.60;;;;;;5033501;28;20046;-68
2022/04/13 12:18:21;;;;;;;9.10;5.72;;;17.60;45.80;;;;;;5024892;28;20041;-68
2022/04/13 12:20:47;;;;;;;9.93;5.63;;;17.70;45.30;;;;;;5027565;28;20463;-69
2022/04/13 12:23:18;;;;;;;7.55;5.32;;;17.80;43.90;;;;;;5038985;28;20390;-69
2022/04/13 12:25:49;;;;;;;9.38;5.57;;;17.70;42.80;;;;;;5031522;28;20102;-68
2022/04/13 12:28:15;;;;;;;7.82;4.70;;;17.50;44.50;;;;;;5025392;28;20708;-68
2022/04/13 12:30:41;;;;;;;8.02;5.35;;;17.60;45.10;;;;;;5032402;28;20106;-68
2022/04/13 12:33:23;;;;;;;8.48;5.97;;;17.80;44.10;;;;;;5029350;28;20110;-69
2022/04/13 12:35:58;;;;;;;6.43;4.95;;;17.90;44.00;;;;;;5034164;28;20042;-68
2022/04/13 12:38:29;;;;;;;8.68;4.93;;;17.80;43.00;;;;;;5030304;28;20040;-68
2022/04/13 12:41:09;;;;;;;8.50;4.50;;;17.70;42.40;;;;;;5031767;28;20029;-67
2022/04/13 12:43:36;;;;;;;6.72;5.20;;;17.70;44.50;;;;;;5024669;28;20121;-68
2022/04/13 12:46:19;;;;;;;5.10;4.35;;;17.70;43.60;;;;;;5029725;28;20052;-68
2022/04/13 12:48:46;;;;;;;7.00;4.72;;;17.80;43.20;;;;;;5027429;28;20497;-68
2022/04/13 12:51:12;;;;;;;6.95;4.70;;;17.90;42.50;;;;;;5033676;28;20037;-69
2022/04/13 12:53:45;;;;;;;8.82;4.55;;;17.90;42.30;;;;;;5027582;28;20049;-67
2022/04/13 12:56:14;;;;;;;6.97;4.07;;;18.00;43.50;;;;;;5038687;28;20568;-68